createdAt,value
2018-08-12T00:01:52.082Z,3.80
2018-08-12T00:04:23.930Z,3.97
2018-08-12T00:06:55.287Z,3.63
2018-08-12T00:09:26.727Z,3.50
2018-08-12T00:11:57.867Z,3.80
2018-08-12T00:14:29.213Z,3.40
2018-08-12T00:17:00.468Z,3.63
2018-08-12T00:19:31.689Z,3.83
2018-08-12T00:22:03.269Z,4.23
2018-08-12T00:24:34.531Z,4.10
2018-08-12T00:27:05.900Z,3.73
2018-08-12T00:29:37.291Z,4.10
2018-08-12T00:32:08.501Z,4.17
2018-08-12T00:34:40.535Z,4.17
2018-08-12T00:37:12.096Z,4.20
2018-08-12T00:39:43.301Z,4.70
2018-08-12T00:42:14.774Z,4.37
2018-08-12T00:44:46.354Z,4.30
2018-08-12T00:47:17.617Z,4.30
2018-08-12T00:49:49.040Z,4.20
2018-08-12T00:52:20.952Z,4.47
2018-08-12T00:54:52.543Z,4.17
2018-08-12T00:57:24.409Z,4.10
2018-08-12T00:59:56.000Z,4.00
2018-08-12T01:02:28.423Z,3.60
2018-08-12T01:04:59.746Z,4.17
2018-08-12T01:07:31.134Z,3.83
2018-08-12T01:10:02.476Z,3.90
2018-08-12T01:12:33.868Z,4.03
2018-08-12T01:15:06.582Z,3.80
2018-08-12T01:17:38.161Z,4.00
2018-08-12T01:20:11.271Z,3.60
2018-08-12T01:22:42.782Z,4.00
2018-08-12T01:25:14.480Z,3.40
2018-08-12T01:27:45.776Z,3.77
2018-08-12T01:30:19.411Z,3.93
2018-08-12T01:32:50.804Z,3.63
2018-08-12T01:35:22.185Z,3.67
2018-08-12T01:37:53.255Z,3.50
2018-08-12T01:40:24.543Z,3.30
2018-08-12T01:42:55.670Z,3.57
2018-08-12T01:45:26.857Z,3.50
2018-08-12T01:47:58.110Z,3.30
2018-08-12T01:50:29.412Z,3.20
2018-08-12T01:53:00.881Z,3.00
2018-08-12T01:55:32.178Z,3.07
2018-08-12T01:58:03.635Z,3.17
2018-08-12T02:00:34.961Z,3.13
2018-08-12T02:03:06.798Z,2.90
2018-08-12T02:05:38.791Z,3.07
2018-08-12T02:08:10.714Z,3.37
2018-08-12T02:10:42.381Z,3.07
2018-08-12T02:13:13.640Z,2.93
2018-08-12T02:15:44.816Z,2.93
2018-08-12T02:18:15.889Z,3.00
2018-08-12T02:20:47.273Z,3.23
2018-08-12T02:23:18.643Z,3.23
2018-08-12T02:25:50.052Z,3.03
2018-08-12T02:28:21.403Z,2.90
2018-08-12T02:30:52.818Z,3.00
2018-08-12T02:33:24.223Z,3.20
2018-08-12T02:35:55.758Z,3.50
2018-08-12T02:38:26.961Z,3.30
2018-08-12T02:40:58.204Z,3.17
2018-08-12T02:43:29.556Z,3.50
2018-08-12T02:46:00.964Z,3.27
2018-08-12T02:48:32.381Z,3.60
2018-08-12T02:51:03.853Z,3.33
2018-08-12T02:53:35.389Z,3.60
2018-08-12T02:56:06.588Z,3.43
2018-08-12T02:58:37.694Z,3.40
2018-08-12T03:01:09.052Z,3.27
2018-08-12T03:03:40.698Z,3.50
2018-08-12T03:06:12.102Z,3.80
2018-08-12T03:08:43.434Z,3.50
2018-08-12T03:11:14.795Z,3.60
2018-08-12T03:13:46.195Z,3.93
2018-08-12T03:16:17.650Z,4.20
2018-08-12T03:18:48.950Z,3.63
2018-08-12T03:21:20.653Z,3.40
2018-08-12T03:23:51.927Z,3.50
2018-08-12T03:26:23.580Z,3.57
2018-08-12T03:28:54.716Z,3.00
2018-08-12T03:31:26.159Z,3.80
2018-08-12T03:33:57.764Z,3.30
2018-08-12T03:36:29.412Z,3.40
2018-08-12T03:39:00.514Z,3.50
2018-08-12T03:41:31.662Z,3.50
2018-08-12T03:44:03.363Z,3.17
2018-08-12T03:46:34.511Z,3.33
2018-08-12T03:49:05.813Z,3.10
2018-08-12T03:51:37.064Z,3.23
2018-08-12T03:54:08.343Z,3.43
2018-08-12T03:56:39.767Z,3.50
2018-08-12T03:59:11.224Z,3.20
2018-08-12T04:01:42.561Z,3.43
2018-08-12T04:04:13.812Z,3.20
2018-08-12T04:06:45.187Z,2.83
2018-08-12T04:09:16.533Z,3.00
2018-08-12T04:11:47.852Z,2.80
2018-08-12T04:14:18.958Z,3.20
2018-08-12T04:17:04.541Z,3.47
2018-08-12T04:19:35.667Z,3.03
2018-08-12T04:22:07.193Z,2.97
2018-08-12T04:24:38.756Z,3.00
2018-08-12T04:27:10.178Z,2.80
2018-08-12T04:29:41.512Z,3.07
2018-08-12T04:32:12.786Z,3.10
2018-08-12T04:34:43.967Z,2.90
2018-08-12T04:37:15.308Z,2.93
2018-08-12T04:39:46.616Z,3.10
2018-08-12T04:42:17.779Z,2.70
2018-08-12T04:44:48.991Z,3.00
2018-08-12T04:47:20.320Z,2.90
2018-08-12T04:49:51.536Z,2.90
2018-08-12T04:52:22.762Z,2.70
2018-08-12T04:54:53.991Z,2.80
2018-08-12T04:57:25.595Z,3.10
2018-08-12T04:59:56.736Z,3.07
2018-08-12T05:02:28.137Z,3.17
2018-08-12T05:04:59.319Z,3.00
2018-08-12T05:07:30.475Z,3.10
2018-08-12T05:10:02.408Z,3.20
2018-08-12T05:12:33.799Z,3.50
2018-08-12T05:15:06.151Z,3.20
2018-08-12T05:17:37.537Z,2.80
2018-08-12T05:20:09.314Z,2.87
2018-08-12T05:22:40.990Z,3.03
2018-08-12T05:25:12.166Z,3.10
2018-08-12T05:27:43.411Z,3.23
2018-08-12T05:30:15.478Z,3.50
2018-08-12T05:32:46.501Z,3.33
2018-08-12T05:35:18.169Z,3.10
2018-08-12T05:37:49.337Z,2.87
2018-08-12T05:40:21.022Z,3.23
2018-08-12T05:42:52.512Z,3.03
2018-08-12T05:45:23.859Z,3.10
2018-08-12T05:47:55.251Z,3.17
2018-08-12T05:50:26.680Z,2.90
2018-08-12T05:52:57.852Z,3.20
2018-08-12T05:55:29.131Z,3.00
2018-08-12T05:58:00.408Z,3.27
2018-08-12T06:00:31.854Z,3.17
2018-08-12T06:03:03.316Z,3.37
2018-08-12T06:05:34.590Z,3.43
2018-08-12T06:08:05.964Z,3.27
2018-08-12T06:10:37.222Z,3.20
2018-08-12T06:13:08.786Z,3.40
2018-08-12T06:15:40.035Z,3.60
2018-08-12T06:18:11.181Z,3.50
2018-08-12T06:20:42.395Z,3.83
2018-08-12T06:23:13.704Z,3.93
2018-08-12T06:25:44.888Z,3.43
2018-08-12T06:28:15.949Z,3.67
2018-08-12T06:30:47.252Z,3.20
2018-08-12T06:33:19.641Z,3.13
2018-08-12T06:35:51.016Z,3.37
2018-08-12T06:38:22.457Z,3.37
2018-08-12T06:40:53.868Z,3.47
2018-08-12T06:43:25.282Z,3.23
2018-08-12T06:45:57.199Z,3.40
2018-08-12T06:48:28.583Z,3.40
2018-08-12T06:51:00.046Z,3.23
2018-08-12T06:53:31.326Z,2.90
2018-08-12T06:56:02.788Z,3.37
2018-08-12T06:58:34.083Z,3.03
2018-08-12T07:01:06.130Z,3.30
2018-08-12T07:03:37.740Z,3.10
2018-08-12T07:06:09.325Z,2.83
2018-08-12T07:08:40.705Z,3.03
2018-08-12T07:11:11.858Z,3.10
2018-08-12T07:13:43.049Z,3.17
2018-08-12T07:16:15.213Z,3.10
2018-08-12T07:18:46.405Z,2.50
2018-08-12T07:21:17.592Z,3.00
2018-08-12T07:23:49.249Z,2.77
2018-08-12T07:26:20.516Z,2.67
2018-08-12T07:28:52.236Z,2.87
2018-08-12T07:31:23.519Z,2.80
2018-08-12T07:33:55.182Z,2.80
2018-08-12T07:36:26.467Z,2.63
2018-08-12T07:38:57.978Z,2.70
2018-08-12T07:41:29.339Z,2.53
2018-08-12T07:44:00.668Z,2.50
2018-08-12T07:46:32.435Z,2.40
2018-08-12T07:49:04.097Z,2.50
2018-08-12T07:51:35.312Z,2.70
2018-08-12T07:54:06.428Z,2.50
2018-08-12T07:56:37.809Z,2.50
2018-08-12T07:59:09.204Z,2.60
2018-08-12T08:01:40.533Z,2.23
2018-08-12T08:04:12.942Z,2.43
2018-08-12T08:06:44.356Z,2.20
2018-08-12T08:09:15.994Z,2.13
2018-08-12T08:11:47.135Z,2.20
2018-08-12T08:14:19.681Z,2.07
2018-08-12T08:16:50.900Z,2.03
2018-08-12T08:19:22.608Z,2.13
2018-08-12T08:21:53.751Z,2.15
2018-08-12T08:24:25.114Z,2.20
2018-08-12T08:26:56.628Z,2.10
2018-08-12T08:29:28.075Z,2.00
2018-08-12T08:31:59.404Z,2.10
2018-08-12T08:39:21.423Z,2.02
2018-08-12T08:41:52.612Z,2.05
2018-08-12T08:44:23.916Z,2.15
2018-08-12T08:46:55.428Z,2.00
2018-08-12T08:49:27.007Z,2.10
2018-08-12T08:51:58.375Z,3.08
2018-08-12T08:54:29.820Z,5.15
2018-08-12T08:57:00.913Z,2.30
2018-08-12T08:59:32.423Z,2.20
2018-08-12T09:02:03.664Z,2.10
2018-08-12T09:04:35.079Z,2.30
2018-08-12T09:07:07.115Z,2.20
2018-08-12T09:09:38.427Z,2.17
2018-08-12T09:12:10.769Z,2.20
2018-08-12T09:14:42.197Z,1.90
2018-08-12T09:17:13.443Z,2.30
2018-08-12T09:19:44.863Z,1.98
2018-08-12T09:22:16.116Z,2.10
2018-08-12T09:24:47.157Z,2.27
2018-08-12T09:27:18.339Z,2.10
2018-08-12T09:29:49.790Z,2.33
2018-08-12T09:32:20.972Z,2.58
2018-08-12T09:34:52.121Z,2.17
2018-08-12T09:37:23.823Z,2.10
2018-08-12T09:39:55.844Z,2.22
2018-08-12T09:42:27.623Z,2.10
2018-08-12T09:44:59.151Z,2.17
2018-08-12T09:47:30.484Z,2.02
2018-08-12T09:50:02.121Z,2.20
2018-08-12T09:52:33.482Z,2.60
2018-08-12T09:55:05.430Z,2.22
2018-08-12T09:57:36.944Z,2.60
2018-08-12T10:00:19.923Z,2.37
2018-08-12T10:02:52.641Z,2.40
2018-08-12T10:05:24.208Z,2.42
2018-08-12T10:07:55.631Z,2.40
2018-08-12T10:10:26.783Z,2.35
2018-08-12T10:14:00.826Z,2.10
2018-08-12T10:16:32.855Z,2.27
2018-08-12T10:19:04.443Z,2.25
2018-08-12T10:21:36.280Z,2.67
2018-08-12T10:24:08.737Z,2.60
2018-08-12T10:26:39.961Z,2.15
2018-08-12T10:29:11.148Z,2.80
2018-08-12T10:31:42.362Z,2.80
2018-08-12T10:34:13.947Z,2.37
2018-08-12T10:36:45.505Z,2.50
2018-08-12T10:39:16.707Z,2.40
2018-08-12T10:41:47.892Z,2.55
2018-08-12T10:44:19.565Z,3.10
2018-08-12T10:46:50.642Z,2.62
2018-08-12T10:49:21.944Z,2.70
2018-08-12T10:51:53.384Z,2.62
2018-08-12T10:54:25.008Z,3.08
2018-08-12T10:56:56.446Z,2.83
2018-08-12T10:59:27.939Z,2.67
2018-08-12T11:01:59.507Z,2.80
2018-08-12T11:04:31.045Z,3.12
2018-08-12T11:07:02.435Z,2.72
2018-08-12T11:09:33.851Z,2.60
2018-08-12T11:12:05.584Z,2.80
2018-08-12T11:14:37.338Z,2.83
2018-08-12T11:17:08.927Z,2.90
2018-08-12T11:19:40.361Z,2.85
2018-08-12T11:22:12.175Z,2.83
2018-08-12T11:24:43.440Z,3.00
2018-08-12T11:27:14.619Z,3.35
2018-08-12T11:29:45.804Z,3.10
2018-08-12T11:32:16.975Z,2.72
2018-08-12T11:34:48.199Z,2.80
2018-08-12T11:37:19.434Z,3.37
2018-08-12T11:39:50.754Z,3.00
2018-08-12T11:42:22.743Z,3.00
2018-08-12T11:44:54.000Z,3.10
2018-08-12T11:47:25.176Z,3.10
2018-08-12T11:49:56.367Z,2.90
2018-08-12T11:52:28.366Z,2.60
2018-08-12T11:54:59.698Z,3.10
2018-08-12T11:57:31.000Z,2.92
2018-08-12T12:00:02.737Z,3.00
2018-08-12T12:02:34.182Z,2.85
2018-08-12T12:05:06.209Z,2.87
2018-08-12T12:07:38.664Z,2.85
2018-08-12T12:10:13.395Z,2.45
2018-08-12T12:12:46.170Z,3.47
2018-08-12T12:15:17.854Z,3.00
2018-08-12T12:17:49.583Z,2.92
2018-08-12T12:20:21.131Z,3.00
2018-08-12T12:22:52.540Z,3.20
2018-08-12T12:25:23.631Z,2.90
2018-08-12T12:27:55.528Z,3.00
2018-08-12T12:30:27.067Z,2.75
2018-08-12T12:32:58.263Z,2.80
2018-08-12T12:35:29.879Z,2.92
2018-08-12T12:38:01.217Z,3.25
2018-08-12T12:40:32.373Z,3.00
2018-08-12T12:43:03.929Z,2.90
2018-08-12T12:45:35.370Z,2.90
2018-08-12T12:48:07.547Z,2.90
2018-08-12T12:50:38.927Z,2.98
2018-08-12T12:53:10.292Z,2.77
2018-08-12T12:55:41.487Z,3.20
2018-08-12T12:58:12.736Z,3.17
2018-08-12T13:00:43.820Z,3.12
2018-08-12T13:03:15.063Z,3.58
2018-08-12T13:05:46.657Z,3.05
2018-08-12T13:08:18.015Z,3.10
2018-08-12T13:10:49.479Z,3.75
2018-08-12T13:13:21.040Z,3.77
2018-08-12T13:15:52.166Z,3.50
2018-08-12T13:18:23.634Z,4.35
2018-08-12T13:20:54.792Z,4.67
2018-08-12T13:23:25.964Z,5.92
2018-08-12T13:25:57.344Z,7.15
2018-08-12T13:28:28.589Z,4.37
2018-08-12T13:30:59.996Z,4.00
2018-08-12T13:33:31.437Z,4.72
2018-08-12T13:36:02.581Z,4.55
2018-08-12T13:38:33.714Z,5.40
2018-08-12T13:41:05.331Z,5.70
2018-08-12T13:43:36.589Z,5.53
2018-08-12T13:46:08.449Z,4.83
2018-08-12T13:48:39.819Z,3.40
2018-08-12T13:51:11.466Z,3.55
2018-08-12T13:53:42.635Z,3.67
2018-08-12T13:56:13.855Z,3.60
2018-08-12T13:58:45.405Z,3.35
2018-08-12T14:01:16.591Z,3.87
2018-08-12T14:03:47.723Z,3.30
2018-08-12T14:06:19.189Z,3.40
2018-08-12T14:08:50.339Z,3.50
2018-08-12T14:11:21.787Z,3.70
2018-08-12T14:13:52.992Z,3.30
2018-08-12T14:16:24.124Z,3.40
2018-08-12T14:18:55.361Z,3.42
2018-08-12T14:21:26.803Z,3.70
2018-08-12T14:23:57.952Z,3.77
2018-08-12T14:26:29.251Z,3.50
2018-08-12T14:29:00.717Z,3.77
2018-08-12T14:31:31.874Z,3.60
2018-08-12T14:34:03.068Z,3.58
2018-08-12T14:36:34.495Z,3.75
2018-08-12T14:39:08.991Z,3.80
2018-08-12T14:41:40.622Z,4.05
2018-08-12T14:44:12.177Z,4.00
2018-08-12T14:46:43.776Z,3.75
2018-08-12T14:49:14.922Z,3.30
2018-08-12T14:51:46.566Z,3.60
2018-08-12T14:54:17.707Z,3.90
2018-08-12T14:56:49.056Z,3.70
2018-08-12T14:59:20.423Z,3.37
2018-08-12T15:01:51.665Z,3.55
2018-08-12T15:04:22.864Z,3.90
2018-08-12T15:06:54.147Z,3.80
2018-08-12T15:09:25.278Z,3.90
2018-08-12T15:11:56.552Z,3.65
2018-08-12T15:14:27.603Z,4.08
2018-08-12T15:16:58.982Z,3.72
2018-08-12T15:19:31.811Z,3.90
2018-08-12T15:22:03.722Z,4.03
2018-08-12T15:24:35.035Z,4.10
2018-08-12T15:27:06.611Z,3.80
2018-08-12T15:29:37.758Z,4.10
2018-08-12T15:32:08.918Z,4.28
2018-08-12T15:34:40.536Z,4.25
2018-08-12T15:37:11.780Z,4.17
2018-08-12T15:39:43.025Z,4.17
2018-08-12T15:42:14.691Z,4.03
2018-08-12T15:44:46.315Z,4.20
2018-08-12T15:47:17.703Z,4.12
2018-08-12T15:49:48.998Z,4.50
2018-08-12T15:52:20.311Z,3.90
2018-08-12T15:54:51.392Z,4.08
2018-08-12T15:57:22.645Z,4.10
2018-08-12T15:59:53.927Z,3.80
2018-08-12T16:02:25.167Z,3.92
2018-08-12T16:04:56.419Z,4.12
2018-08-12T16:07:27.969Z,4.10
2018-08-12T16:09:59.725Z,3.80
2018-08-12T16:12:31.085Z,3.98
2018-08-12T16:15:02.501Z,4.08
2018-08-12T16:17:34.245Z,4.30
2018-08-12T16:20:06.866Z,4.05
2018-08-12T16:22:38.241Z,3.83
2018-08-12T16:25:16.846Z,4.25
2018-08-12T16:27:48.800Z,3.65
2018-08-12T16:30:20.881Z,3.80
2018-08-12T16:32:52.512Z,3.75
2018-08-12T16:35:23.721Z,3.85
2018-08-12T16:37:54.827Z,3.90
2018-08-12T16:40:26.009Z,4.10
2018-08-12T16:42:57.455Z,3.80
2018-08-12T16:45:29.051Z,3.55
2018-08-12T16:48:00.834Z,3.92
2018-08-12T16:50:32.193Z,3.77
2018-08-12T16:53:03.428Z,4.42
2018-08-12T16:55:34.809Z,3.90
2018-08-12T16:58:06.417Z,4.12
2018-08-12T17:00:37.932Z,4.33
2018-08-12T17:03:09.810Z,4.47
2018-08-12T17:05:41.109Z,4.20
2018-08-12T17:08:12.319Z,3.92
2018-08-12T17:10:43.452Z,4.03
2018-08-12T17:13:14.932Z,4.10
2018-08-12T17:15:46.479Z,4.60
2018-08-12T17:18:17.954Z,4.08
2018-08-12T17:20:49.276Z,4.15
2018-08-12T17:23:20.543Z,4.45
2018-08-12T17:25:54.126Z,4.78
2018-08-12T17:28:25.632Z,4.70
2018-08-12T17:30:57.088Z,4.62
2018-08-12T17:33:29.270Z,4.33
2018-08-12T17:36:00.708Z,4.72
2018-08-12T17:38:33.207Z,4.67
2018-08-12T17:41:06.951Z,4.42
2018-08-12T17:43:40.227Z,4.50
2018-08-12T17:46:13.705Z,4.50
2018-08-12T17:48:45.548Z,5.20
2018-08-12T17:51:16.688Z,4.70
2018-08-12T17:53:49.949Z,6.55
2018-08-12T17:56:23.174Z,5.73
2018-08-12T17:58:54.566Z,7.93
2018-08-12T18:01:25.806Z,6.33
2018-08-12T18:03:57.587Z,8.10
2018-08-12T18:06:29.944Z,2.87
2018-08-12T18:09:01.587Z,3.10
2018-08-12T18:11:32.799Z,3.60
2018-08-12T18:14:04.152Z,4.30
2018-08-12T18:16:35.916Z,5.10
2018-08-12T18:19:08.253Z,5.67
2018-08-12T18:21:39.495Z,5.10
2018-08-12T18:24:10.642Z,5.40
2018-08-12T18:26:42.036Z,4.23
2018-08-12T18:29:13.550Z,4.77
2018-08-12T18:31:44.864Z,4.70
2018-08-12T18:34:16.006Z,4.13
2018-08-12T18:36:50.087Z,3.77
2018-08-12T18:39:23.177Z,3.60
2018-08-12T18:41:54.353Z,3.30
2018-08-12T18:44:26.117Z,3.73
2018-08-12T18:46:57.260Z,3.53
2018-08-12T18:49:29.266Z,4.17
2018-08-12T18:52:00.601Z,4.67
2018-08-12T18:54:31.922Z,5.70
2018-08-12T18:57:03.214Z,7.33
2018-08-12T18:59:36.552Z,7.40
2018-08-12T19:02:09.832Z,7.83
2018-08-12T19:04:41.179Z,7.47
2018-08-12T19:07:13.208Z,6.63
2018-08-12T19:09:44.484Z,6.03
2018-08-12T19:12:15.843Z,6.40
2018-08-12T19:14:47.029Z,6.47
2018-08-12T19:17:19.072Z,8.27
2018-08-12T19:19:51.100Z,8.20
2018-08-12T19:22:22.245Z,7.00
2018-08-12T19:24:54.307Z,7.87
2018-08-12T19:27:25.612Z,8.50
2018-08-12T19:29:56.927Z,8.07
2018-08-12T19:32:28.415Z,7.90
2018-08-12T19:34:59.601Z,7.50
2018-08-12T19:37:33.021Z,6.80
2018-08-12T19:40:04.628Z,5.33
2018-08-12T19:42:35.346Z,4.80
2018-08-12T19:45:07.641Z,4.27
2018-08-12T19:47:38.346Z,4.83
2018-08-12T19:50:10.619Z,5.03
2018-08-12T19:52:41.351Z,5.00
2018-08-12T19:55:13.514Z,4.83
2018-08-12T19:57:44.813Z,4.90
2018-08-12T20:00:16.505Z,5.10
2018-08-12T20:02:47.766Z,4.57
2018-08-12T20:05:18.498Z,3.60
2018-08-12T20:07:49.265Z,6.10
2018-08-12T20:10:19.942Z,5.10
2018-08-12T20:12:50.626Z,4.10
2018-08-12T20:15:21.343Z,3.80
2018-08-12T20:17:52.060Z,3.57
2018-08-12T20:20:22.927Z,3.73
2018-08-12T20:22:53.665Z,2.80
2018-08-12T20:25:24.340Z,3.23
2018-08-12T20:27:55.166Z,8.03
2018-08-12T20:30:25.841Z,8.37
2018-08-12T20:32:56.583Z,9.70
2018-08-12T20:35:27.270Z,6.70
2018-08-12T20:37:57.967Z,5.30
2018-08-12T20:40:28.686Z,6.60
2018-08-12T20:42:59.386Z,6.47
2018-08-12T20:45:30.263Z,6.30
2018-08-12T20:48:00.923Z,7.53
2018-08-12T20:50:33.219Z,6.43
2018-08-12T20:53:04.046Z,4.10
2018-08-12T20:55:34.796Z,6.07
2018-08-12T20:58:06.107Z,7.27
2018-08-12T21:00:36.838Z,5.77
2018-08-12T21:03:07.557Z,5.20
2018-08-12T21:05:38.228Z,5.23
2018-08-12T21:08:08.972Z,6.23
2018-08-12T21:10:39.727Z,11.33
2018-08-12T21:13:10.594Z,7.27
2018-08-12T21:15:41.313Z,6.97
2018-08-12T21:18:12.105Z,6.77
2018-08-12T21:20:42.912Z,9.30
2018-08-12T21:23:13.621Z,11.00
2018-08-12T21:25:44.872Z,14.63
2018-08-12T21:28:16.122Z,7.63
2018-08-12T21:30:47.721Z,6.70
2018-08-12T21:33:19.016Z,5.57
2018-08-12T21:35:50.258Z,4.77
2018-08-12T21:38:21.616Z,5.80
2018-08-12T21:40:52.875Z,6.30
2018-08-12T21:43:24.056Z,5.17
2018-08-12T21:45:55.251Z,5.40
2018-08-12T21:48:26.833Z,6.27
2018-08-12T21:50:58.117Z,6.10
2018-08-12T21:53:29.804Z,5.97
2018-08-12T21:56:00.923Z,6.40
2018-08-12T21:58:32.160Z,6.70
2018-08-12T22:01:03.908Z,6.90
2018-08-12T22:03:35.455Z,7.90
2018-08-12T22:06:07.128Z,9.37
2018-08-12T22:08:38.383Z,11.70
2018-08-12T22:11:09.738Z,10.10
2018-08-12T22:13:41.120Z,8.40
2018-08-12T22:16:12.898Z,8.13
2018-08-12T22:18:44.315Z,9.60
2018-08-12T22:21:15.523Z,9.20
2018-08-12T22:23:47.236Z,10.00
2018-08-12T22:27:21.108Z,8.50
2018-08-12T22:29:52.443Z,9.00
2018-08-12T22:32:23.996Z,10.23
2018-08-12T22:34:55.167Z,8.40
2018-08-12T22:37:25.826Z,8.80
2018-08-12T22:39:57.263Z,8.90
2018-08-12T22:42:28.479Z,10.83
2018-08-12T22:44:59.882Z,9.90
2018-08-12T22:47:30.980Z,8.10
2018-08-12T22:50:02.220Z,12.03
2018-08-12T22:52:32.987Z,9.77
2018-08-12T22:55:03.745Z,19.83
2018-08-12T22:57:35.256Z,18.93
2018-08-12T23:00:09.774Z,13.40
2018-08-12T23:02:40.738Z,11.63
2018-08-12T23:05:11.632Z,10.73
2018-08-12T23:07:42.799Z,12.03
2018-08-12T23:10:13.566Z,13.60
2018-08-12T23:12:44.234Z,10.17
2018-08-12T23:15:31.408Z,13.27
2018-08-12T23:18:02.092Z,12.30
2018-08-12T23:20:32.839Z,15.03
2018-08-12T23:23:04.637Z,15.13
2018-08-12T23:25:36.202Z,14.40
2018-08-12T23:28:07.458Z,13.30
2018-08-12T23:30:39.026Z,11.93
2018-08-12T23:33:10.319Z,15.23
2018-08-12T23:35:41.527Z,12.77
2018-08-12T23:38:13.985Z,10.83
2018-08-12T23:40:45.102Z,13.47
2018-08-12T23:43:16.276Z,11.83
2018-08-12T23:45:47.848Z,9.70
2018-08-12T23:48:19.255Z,10.33
2018-08-12T23:50:49.964Z,9.90
2018-08-12T23:53:20.860Z,10.37
2018-08-12T23:55:51.681Z,10.20
2018-08-12T23:58:22.343Z,10.40
